Kahler Asten, Germany

7:41 PM CEST on October 25, 2014 (GMT +0200)
Schmallenberg Gellinghausen | Change Station
CLOSE
Current Station
Personal Weather Station
Location: Schmallenberg, NORDRHEIN-WESTFALEN
Elevation: 1673 ft
Nearby Weather Stations

Elev 1673 ft 51.24 °N, 8.36 °E | Updated 0 second ago

Fog
Fog
52.9 °F
Feels Like 52.9 °F
N
0.0
Wind Variable Wind from SE
Gusts 0.0 mph

Today
High -- | Low -- °F
--% Chance of Precip.
Yesterday
High -- | Low -- °F
Precip. -- in
8:06 AM 6:13 PM
Waxing Crescent, 4% visible
Pressure 30.15 in
Visibility 0.1 miles
Clouds
Dew Point 47 °F
Humidity 81%
Rainfall 0.00 in
Snow Depth Not available.
UV Not available.
Pollen Not available.
Air Quality Not available.
Flu Activity Not available.
METAR EDGS 251720Z 19005KT 160V220 0200 R31/0550N FG VV/// 09/09 Q1021

More Conditions Fewer Conditions

Pressure 30.15 in
Visibility 0.1 miles
Clouds
Dew Point 47 °F
Humidity 81%
Rainfall 0.00 in
Snow Depth Not available.
UV Not available.
Pollen Not available.
Air Quality Not available.
Flu Activity Not available.
METAR EDGS 251720Z 19005KT 160V220 0200 R31/0550N FG VV/// 09/09 Q1021

More Conditions Fewer Conditions

10-Day Weather Forecast

Almanac

Astronomy

Oct. 25, 2014 Rise Set
Actual Time 8:06 AM CEST 6:13 PM CEST
Civil Twilight 7:32 AM CEST 6:47 PM CEST
Nautical Twilight 6:53 AM CEST 7:26 PM CEST
Astronomical Twilight 6:14 AM CEST 8:04 PM CEST
Moon 9:36 AM CEST 7:15 PM CEST
Length of Visible Light 11h 15m
Length of Day
10h 07m
Tomorrow will be 3m 41s shorter.
Waxing Crescent, 4% of the Moon is Illuminated
Today
Waxing Crescent
Oct 30
First Quarter
Nov 6
Full
Nov 14
Last Quarter
Nov 22
New

Today's Extremes

Country Highs Country Lows

Community

WunderPhotos

Upload Photos

1,764,919 photos uploaded!

Nearby

Snow Depth

Not available.

Earthquake Activity

City Distance Mag. Time & Date
No recent earthquake activity has been reported nearby.
Minimum magnitude displayed is 2.5.

Coastal Water Temperatures

Place Temperature
No Stations Reporting

Nearby Weather Stations